Wendy Anne — WDE6314 — position and weather

sailwx.info

Track history (hours):
 
Tides and Currents Weather Stations Pressure Air Temp Water Temp Dewpoint Dewpoint Depression Visibility Wind Speed Wind Dir Waves Ship Positions

Wendy Anne

Owner: Fogg, Matthew J, Beaver Island, MI. More information available from US FCC via Universal Licensing System and Coast Guard Vessel Documentation Center.

Last reported at 2018-Jul-22 22:00 UTC. Time now 2018-Jul-22 21:56 UTC.
Position N 45°45' W 085°31'.

; draft 3.1 m.

Type: Tug. MMSI: 367378670.

Date/timePositionNaut miles runAvg speedWind from/ knotsBaromVisibWave heightAir tempDewpointWater temp
2018-Jul-22 22:00N 45°45' W 085°31'0 0.0
2018-Jul-22 21:30N 45°45' W 085°31'0 0.0
2018-Jul-22 21:00N 45°45' W 085°31'0 0.0
2018-Jul-22 20:30N 45°45' W 085°31'0 0.0
2018-Jul-22 20:00N 45°45' W 085°31'0 0.0
2018-Jul-22 19:30N 45°45' W 085°31'0 0.0
2018-Jul-22 19:00N 45°45' W 085°31'0 0.0
2018-Jul-22 18:28N 45°45' W 085°31'0 0.0
2018-Jul-22 18:00N 45°45' W 085°31'0 0.0
2018-Jul-22 17:30N 45°45' W 085°31'0 0.0
2018-Jul-22 17:00N 45°45' W 085°31'0 0.0
2018-Jul-22 16:30N 45°45' W 085°31'0 0.0
2018-Jul-22 16:00N 45°45' W 085°31'0 0.0
2018-Jul-22 15:00N 45°45' W 085°31'0 0.0
2018-Jul-22 14:30N 45°45' W 085°31'0 0.0
2018-Jul-22 14:00N 45°45' W 085°31'0 0.0
2018-Jul-22 13:30N 45°45' W 085°31'0 0.0
2018-Jul-22 13:00N 45°45' W 085°31'0 0.0
2018-Jul-22 12:30N 45°45' W 085°31'0 0.0
2018-Jul-22 11:59N 45°45' W 085°31'0 0.0
2018-Jul-22 11:30N 45°45' W 085°31'0 0.0
2018-Jul-22 11:00N 45°45' W 085°31'0 0.0
2018-Jul-22 10:30N 45°45' W 085°31'0 0.0
2018-Jul-22 10:00N 45°45' W 085°31'0 0.0
2018-Jul-22 09:30N 45°45' W 085°31'0 0.0
2018-Jul-22 09:00N 45°45' W 085°31'0 0.0
2018-Jul-22 08:30N 45°45' W 085°31'0 0.0
2018-Jul-22 08:00N 45°45' W 085°31'0 0.0
2018-Jul-22 07:30N 45°45' W 085°31'0 0.0
2018-Jul-22 07:00N 45°45' W 085°31'0 0.0
2018-Jul-22 06:30N 45°45' W 085°31'0 0.0
2018-Jul-22 06:00N 45°45' W 085°31'0 0.0
2018-Jul-22 05:30N 45°45' W 085°31'0 0.0
2018-Jul-22 05:00N 45°45' W 085°31'0 0.0
2018-Jul-22 04:30N 45°45' W 085°31'0 0.0
2018-Jul-22 04:00N 45°45' W 085°31'0 0.0
2018-Jul-22 03:30N 45°45' W 085°31'0 0.0
2018-Jul-22 03:00N 45°45' W 085°31'0 0.0
2018-Jul-22 02:30N 45°45' W 085°31'0 0.0
2018-Jul-22 02:00N 45°45' W 085°31'0 0.0
2018-Jul-22 01:30N 45°45' W 085°31'0 0.5
2018-Jul-22 00:58N 45°45' W 085°31'2 2.9
2018-Jul-22 00:23N 45°44' W 085°29'3 7.0
2018-Jul-22 00:00N 45°42' W 085°26'4 7.0
2018-Jul-21 23:30N 45°39' W 085°25'3 6.9
2018-Jul-21 23:00N 45°35' W 085°24'3 6.8
2018-Jul-21 22:30N 45°32' W 085°22'3 6.9
2018-Jul-21 22:00N 45°29' W 085°21'4 7.1
2018-Jul-21 21:30N 45°25' W 085°19'4 7.2
2018-Jul-21 20:59N 45°22' W 085°17'  
2018-Jul-19 04:14N 45°19' W 085°16'1 5.2
2018-Jul-19 04:01N 45°20' W 085°17'4 7.4
2018-Jul-19 03:31N 45°24' W 085°19'5 7.5
2018-Jul-19 02:54N 45°28' W 085°21'3 7.4
2018-Jul-19 02:30N 45°31' W 085°23'4 7.5
2018-Jul-19 02:00N 45°34' W 085°24'4 7.6
2018-Jul-19 01:30N 45°38' W 085°26'8 6.8
2018-Jul-19 00:22N 45°45' W 085°31'0 0.2
2018-Jul-19 00:01N 45°45' W 085°31'0 0.0
2018-Jul-18 23:30N 45°45' W 085°31'0 0.0
2018-Jul-18 23:01N 45°45' W 085°31'0 0.0
2018-Jul-18 22:30N 45°45' W 085°31'0 0.0
2018-Jul-18 22:01N 45°45' W 085°31'0 0.0
2018-Jul-18 21:30N 45°45' W 085°31'0 0.0
2018-Jul-18 20:59N 45°45' W 085°31'0 0.0
2018-Jul-18 20:30N 45°45' W 085°31'0 0.0
2018-Jul-18 20:00N 45°45' W 085°31'0 0.0
2018-Jul-18 19:29N 45°45' W 085°31'0 0.0
2018-Jul-18 19:00N 45°45' W 085°31'0 0.0
2018-Jul-18 18:30N 45°45' W 085°31'0 0.0
2018-Jul-18 18:01N 45°45' W 085°31'0 0.0
2018-Jul-18 17:30N 45°45' W 085°31'0 0.0
2018-Jul-18 17:00N 45°45' W 085°31'0 0.0
2018-Jul-18 16:31N 45°45' W 085°31'0 0.0
2018-Jul-18 16:00N 45°45' W 085°31'0 0.0
2018-Jul-18 15:30N 45°45' W 085°31'0 0.0
2018-Jul-18 15:00N 45°45' W 085°31'0 0.0
2018-Jul-18 14:30N 45°45' W 085°31'0 0.0
2018-Jul-18 13:31N 45°45' W 085°31'0 0.0
2018-Jul-18 13:00N 45°45' W 085°31'0 0.0
2018-Jul-18 12:30N 45°45' W 085°31'0 0.0
2018-Jul-18 12:01N 45°45' W 085°31'0 0.0
2018-Jul-18 11:31N 45°45' W 085°31'0 0.0
2018-Jul-18 10:30N 45°45' W 085°31'0 0.0
2018-Jul-18 10:00N 45°45' W 085°31'0 0.0
2018-Jul-18 09:30N 45°45' W 085°31'0 0.0
2018-Jul-18 09:00N 45°45' W 085°31'0 0.0
2018-Jul-18 08:31N 45°45' W 085°31'0 0.0
2018-Jul-18 08:01N 45°45' W 085°31'0 0.0
2018-Jul-18 07:31N 45°45' W 085°31'0 0.0
2018-Jul-18 07:01N 45°45' W 085°31'0 0.0
2018-Jul-18 06:30N 45°45' W 085°31'0 0.0
2018-Jul-18 06:00N 45°45' W 085°31'0 0.0
2018-Jul-18 05:31N 45°45' W 085°31'0 0.0
2018-Jul-18 05:00N 45°45' W 085°31'0 0.0
2018-Jul-18 04:31N 45°45' W 085°31'0 0.0
2018-Jul-18 04:00N 45°45' W 085°31'0 0.0
2018-Jul-18 03:30N 45°45' W 085°31'0 0.0
2018-Jul-18 03:00N 45°45' W 085°31'0 0.0
2018-Jul-18 02:30N 45°45' W 085°31'0 0.0
2018-Jul-18 02:00N 45°45' W 085°31'0 0.0
2018-Jul-18 01:30N 45°45' W 085°31'0 0.0
2018-Jul-18 01:00N 45°45' W 085°31'0 0.0
2018-Jul-18 00:30N 45°45' W 085°31'0 0.0
2018-Jul-18 00:00N 45°45' W 085°31'0 0.0
2018-Jul-17 23:30N 45°45' W 085°31'0 0.0
2018-Jul-17 23:00N 45°45' W 085°31'0 0.0
2018-Jul-17 22:30N 45°45' W 085°31'0 0.0
2018-Jul-17 22:00N 45°45' W 085°31'0 0.0
2018-Jul-17 21:30N 45°45' W 085°31'0 0.0
2018-Jul-17 21:00N 45°45' W 085°31'0 0.0
2018-Jul-17 20:31N 45°45' W 085°31'0 0.0
2018-Jul-17 20:00N 45°45' W 085°31'0 0.0
2018-Jul-17 19:29N 45°45' W 085°31'0 0.0
2018-Jul-17 19:00N 45°45' W 085°31'0 0.0
2018-Jul-17 18:30N 45°45' W 085°31'0 0.0
2018-Jul-17 18:01N 45°45' W 085°31'0 0.0
2018-Jul-17 17:31N 45°45' W 085°31'0 0.0
2018-Jul-17 17:00N 45°45' W 085°31'0 0.0
2018-Jul-17 16:30N 45°45' W 085°31'0 0.0
2018-Jul-17 16:01N 45°45' W 085°31'0 0.0
2018-Jul-17 15:30N 45°45' W 085°31'0 0.0
2018-Jul-17 15:01N 45°45' W 085°31'0 0.0
2018-Jul-17 14:30N 45°45' W 085°31'0 0.0
2018-Jul-17 14:01N 45°45' W 085°31'0 0.0
2018-Jul-17 13:30N 45°45' W 085°31'0 0.0
2018-Jul-17 12:59N 45°45' W 085°31'0 0.0
2018-Jul-17 12:30N 45°45' W 085°31'0 0.0
2018-Jul-17 12:00N 45°45' W 085°31'0 0.0
2018-Jul-17 11:30N 45°45' W 085°31'0 0.0
2018-Jul-17 11:00N 45°45' W 085°31'0 0.0
2018-Jul-17 10:30N 45°45' W 085°31'0 0.0
2018-Jul-17 09:57N 45°45' W 085°31'0 0.0
2018-Jul-17 09:30N 45°45' W 085°31'0 0.0
2018-Jul-17 09:00N 45°45' W 085°31'0 0.0
2018-Jul-17 08:30N 45°45' W 085°31'0 0.0
2018-Jul-17 08:00N 45°45' W 085°31'0 0.0
2018-Jul-17 07:30N 45°45' W 085°31'0 0.0
2018-Jul-17 07:00N 45°45' W 085°31'0 0.0
2018-Jul-17 06:30N 45°45' W 085°31'0 0.0
2018-Jul-17 06:01N 45°45' W 085°31'0 0.0
2018-Jul-17 05:28N 45°45' W 085°31'0 0.0
2018-Jul-17 05:01N 45°45' W 085°31'0 0.0
2018-Jul-17 04:31N 45°45' W 085°31'0 0.0
2018-Jul-17 04:00N 45°45' W 085°31'0 0.0
2018-Jul-17 03:30N 45°45' W 085°31'0 0.0
2018-Jul-17 03:01N 45°45' W 085°31'0 0.0
2018-Jul-17 02:29N 45°45' W 085°31'0 0.0
2018-Jul-17 02:00N 45°45' W 085°31'0 0.0
2018-Jul-17 01:30N 45°45' W 085°31'0 0.0
2018-Jul-17 01:01N 45°45' W 085°31'0 0.0
2018-Jul-17 00:28N 45°45' W 085°31'0 0.0
2018-Jul-16 23:30N 45°45' W 085°31'0 0.0
2018-Jul-16 22:59N 45°45' W 085°31'0 0.0
2018-Jul-16 22:30N 45°45' W 085°31'0 0.0
2018-Jul-16 21:59N 45°45' W 085°31'0 0.0
2018-Jul-16 21:31N 45°45' W 085°31'0 0.0
2018-Jul-16 21:00N 45°45' W 085°31'0 0.0
2018-Jul-16 20:30N 45°45' W 085°31'0 0.0
2018-Jul-16 19:57N 45°45' W 085°31'0 0.0
2018-Jul-16 19:30N 45°45' W 085°31'0 0.0
2018-Jul-16 19:00N 45°45' W 085°31'0 0.0
2018-Jul-16 18:30N 45°45' W 085°31'0 0.0
2018-Jul-16 18:00N 45°45' W 085°31'0 0.0
2018-Jul-16 17:28N 45°45' W 085°31'0 0.0
2018-Jul-16 17:00N 45°45' W 085°31'0 0.0
2018-Jul-16 16:30N 45°45' W 085°31'0 0.0
2018-Jul-16 16:00N 45°45' W 085°31'0 0.0
2018-Jul-16 15:30N 45°45' W 085°31'0 0.0
2018-Jul-16 15:00N 45°45' W 085°31'0 0.0
2018-Jul-16 14:30N 45°45' W 085°31'0 0.0
2018-Jul-16 14:00N 45°45' W 085°31'0 0.0
2018-Jul-16 13:30N 45°45' W 085°31'0 0.0
2018-Jul-16 13:00N 45°45' W 085°31'0 0.0
2018-Jul-16 12:30N 45°45' W 085°31'0 0.0
2018-Jul-16 12:00N 45°45' W 085°31'0 0.0
2018-Jul-16 11:30N 45°45' W 085°31'0 0.0
2018-Jul-16 10:59N 45°45' W 085°31'0 0.0
2018-Jul-16 10:31N 45°45' W 085°31'0 0.0
2018-Jul-16 10:01N 45°45' W 085°31'0 0.0
2018-Jul-16 09:30N 45°45' W 085°31'0 0.0
2018-Jul-16 09:00N 45°45' W 085°31'0 0.0
2018-Jul-16 08:30N 45°45' W 085°31'0 0.0
2018-Jul-16 08:00N 45°45' W 085°31'0 0.0
2018-Jul-16 07:30N 45°45' W 085°31'0 0.0
2018-Jul-16 07:00N 45°45' W 085°31'0 0.0
2018-Jul-16 06:30N 45°45' W 085°31'0 0.0
2018-Jul-16 05:59N 45°45' W 085°31'0 0.0
2018-Jul-16 05:30N 45°45' W 085°31'0 0.0
2018-Jul-16 05:00N 45°45' W 085°31'0 0.0
2018-Jul-16 04:29N 45°45' W 085°31'0 0.0
2018-Jul-16 03:50N 45°45' W 085°31'0 0.0
2018-Jul-15 23:19N 45°45' W 085°31'0 0.0
2018-Jul-15 22:59N 45°45' W 085°31'0 0.0
2018-Jul-15 22:05N 45°45' W 085°31'0 0.0
2018-Jul-15 21:52N 45°45' W 085°31'0 0.0
2018-Jul-15 21:29N 45°45' W 085°31'0 0.0
2018-Jul-15 20:58N 45°45' W 085°31'0 0.0
2018-Jul-15 20:30N 45°45' W 085°31'0 0.0
2018-Jul-15 20:00N 45°45' W 085°31'0 0.0
2018-Jul-15 19:30N 45°45' W 085°31'0 0.0
2018-Jul-15 19:00N 45°45' W 085°31'0 0.0
2018-Jul-15 18:30N 45°45' W 085°31'0 0.0
2018-Jul-15 18:00N 45°45' W 085°31'0 0.0
2018-Jul-15 17:30N 45°45' W 085°31'0 0.0
2018-Jul-15 17:00N 45°45' W 085°31'0 0.0
2018-Jul-15 16:30N 45°45' W 085°31'0 0.0
2018-Jul-15 16:00N 45°45' W 085°31'0 0.0
2018-Jul-15 15:30N 45°45' W 085°31'0 0.0
2018-Jul-15 15:00N 45°45' W 085°31'0 0.0
2018-Jul-15 14:30N 45°45' W 085°31'0 0.0
2018-Jul-15 14:00N 45°45' W 085°31'0 0.0
2018-Jul-15 13:30N 45°45' W 085°31'0 0.0
2018-Jul-15 12:58N 45°45' W 085°31'0 0.0
2018-Jul-15 12:27N 45°45' W 085°31'0 0.0
2018-Jul-15 11:58N 45°45' W 085°31'0 0.0
2018-Jul-15 11:29N 45°45' W 085°31'0 0.0
2018-Jul-15 11:00N 45°45' W 085°31'0 0.0
2018-Jul-15 10:24N 45°45' W 085°31'0 0.0
2018-Jul-15 10:00N 45°45' W 085°31'0 0.0
2018-Jul-15 09:27N 45°45' W 085°31'0 0.0
2018-Jul-15 09:00N 45°45' W 085°31'0 0.0
2018-Jul-15 08:30N 45°45' W 085°31'0 0.0
2018-Jul-15 08:00N 45°45' W 085°31'0 0.0
2018-Jul-15 07:30N 45°45' W 085°31'0 0.0
2018-Jul-15 07:00N 45°45' W 085°31'0 0.0
2018-Jul-15 06:30N 45°45' W 085°31'0 0.0
2018-Jul-15 06:00N 45°45' W 085°31'0 0.0
2018-Jul-15 05:30N 45°45' W 085°31'0 0.0
2018-Jul-15 05:00N 45°45' W 085°31'0 0.0
2018-Jul-15 04:30N 45°45' W 085°31'0 0.0
2018-Jul-15 04:00N 45°45' W 085°31'0 0.0
2018-Jul-15 03:29N 45°45' W 085°31'0 0.0
2018-Jul-15 03:00N 45°45' W 085°31'0 0.0
2018-Jul-15 02:31N 45°45' W 085°31'0 0.0
2018-Jul-15 01:59N 45°45' W 085°31'0 0.0
2018-Jul-15 01:25N 45°45' W 085°31'0 0.0
2018-Jul-15 00:48N 45°45' W 085°31'0 0.0
2018-Jul-15 00:30N 45°45' W 085°31'0 0.0
2018-Jul-14 22:56N 45°45' W 085°31'0 0.0
2018-Jul-14 22:30N 45°45' W 085°31'0 0.0
2018-Jul-14 21:59N 45°45' W 085°31'0 0.0
2018-Jul-14 21:30N 45°45' W 085°31'0 0.0
2018-Jul-14 20:55N 45°45' W 085°31'0 0.0
2018-Jul-14 20:30N 45°45' W 085°31'0 0.0
2018-Jul-14 19:59N 45°45' W 085°31'0 0.0
2018-Jul-14 19:30N 45°45' W 085°31'0 0.0
2018-Jul-14 19:00N 45°45' W 085°31'0 0.0
2018-Jul-14 18:30N 45°45' W 085°31'0 0.0
2018-Jul-14 18:00N 45°45' W 085°31'0 0.0
2018-Jul-14 17:30N 45°45' W 085°31'0 0.0
2018-Jul-14 17:00N 45°45' W 085°31'0 0.0
2018-Jul-14 16:30N 45°45' W 085°31'0 0.0
2018-Jul-14 16:00N 45°45' W 085°31'0 0.1
2018-Jul-14 15:30N 45°45' W 085°31'2 5.0
2018-Jul-14 15:00N 45°43' W 085°28'4 8.1
2018-Jul-14 14:30N 45°40' W 085°25'8 8.2
2018-Jul-14 13:30N 45°32' W 085°22'4 8.2
2018-Jul-14 13:00N 45°28' W 085°20'4 8.1
2018-Jul-14 12:30N 45°24' W 085°18'4 8.2
2018-Jul-14 12:00N 45°20' W 085°16'2 3.6
2018-Jul-14 11:30N 45°19' W 085°15'  
Track history (hours):
 
Tides and Currents Weather Stations Pressure Air Temp Water Temp Dewpoint Dewpoint Depression Visibility Wind Speed Wind Dir Waves Ship Positions

Wendy Anne

Owner: Fogg, Matthew J, Beaver Island, MI. More information available from US FCC via Universal Licensing System and Coast Guard Vessel Documentation Center.

Last reported at 2018-Jul-22 22:00 UTC. Time now 2018-Jul-22 21:56 UTC.
Position N 45°45' W 085°31'.

; draft 3.1 m.

Type: Tug. MMSI: 367378670.

Date/timePositionNaut miles runAvg speedWind from/ knotsBaromVisibWave heightAir tempDewpointWater temp
2018-Jul-22 22:00N 45°45' W 085°31'0 0.0
2018-Jul-22 21:30N 45°45' W 085°31'0 0.0
2018-Jul-22 21:00N 45°45' W 085°31'0 0.0
2018-Jul-22 20:30N 45°45' W 085°31'0 0.0
2018-Jul-22 20:00N 45°45' W 085°31'0 0.0
2018-Jul-22 19:30N 45°45' W 085°31'0 0.0
2018-Jul-22 19:00N 45°45' W 085°31'0 0.0
2018-Jul-22 18:28N 45°45' W 085°31'0 0.0
2018-Jul-22 18:00N 45°45' W 085°31'0 0.0
2018-Jul-22 17:30N 45°45' W 085°31'0 0.0
2018-Jul-22 17:00N 45°45' W 085°31'0 0.0
2018-Jul-22 16:30N 45°45' W 085°31'0 0.0
2018-Jul-22 16:00N 45°45' W 085°31'0 0.0
2018-Jul-22 15:00N 45°45' W 085°31'0 0.0
2018-Jul-22 14:30N 45°45' W 085°31'0 0.0
2018-Jul-22 14:00N 45°45' W 085°31'0 0.0
2018-Jul-22 13:30N 45°45' W 085°31'0 0.0
2018-Jul-22 13:00N 45°45' W 085°31'0 0.0
2018-Jul-22 12:30N 45°45' W 085°31'0 0.0
2018-Jul-22 11:59N 45°45' W 085°31'0 0.0
2018-Jul-22 11:30N 45°45' W 085°31'0 0.0
2018-Jul-22 11:00N 45°45' W 085°31'0 0.0
2018-Jul-22 10:30N 45°45' W 085°31'0 0.0
2018-Jul-22 10:00N 45°45' W 085°31'0 0.0
2018-Jul-22 09:30N 45°45' W 085°31'0 0.0
2018-Jul-22 09:00N 45°45' W 085°31'0 0.0
2018-Jul-22 08:30N 45°45' W 085°31'0 0.0
2018-Jul-22 08:00N 45°45' W 085°31'0 0.0
2018-Jul-22 07:30N 45°45' W 085°31'0 0.0
2018-Jul-22 07:00N 45°45' W 085°31'0 0.0
2018-Jul-22 06:30N 45°45' W 085°31'0 0.0
2018-Jul-22 06:00N 45°45' W 085°31'0 0.0
2018-Jul-22 05:30N 45°45' W 085°31'0 0.0
2018-Jul-22 05:00N 45°45' W 085°31'0 0.0
2018-Jul-22 04:30N 45°45' W 085°31'0 0.0
2018-Jul-22 04:00N 45°45' W 085°31'0 0.0
2018-Jul-22 03:30N 45°45' W 085°31'0 0.0
2018-Jul-22 03:00N 45°45' W 085°31'0 0.0
2018-Jul-22 02:30N 45°45' W 085°31'0 0.0
2018-Jul-22 02:00N 45°45' W 085°31'0 0.0
2018-Jul-22 01:30N 45°45' W 085°31'0 0.5
2018-Jul-22 00:58N 45°45' W 085°31'2 2.9
2018-Jul-22 00:23N 45°44' W 085°29'3 7.0
2018-Jul-22 00:00N 45°42' W 085°26'4 7.0
2018-Jul-21 23:30N 45°39' W 085°25'3 6.9
2018-Jul-21 23:00N 45°35' W 085°24'3 6.8
2018-Jul-21 22:30N 45°32' W 085°22'3 6.9
2018-Jul-21 22:00N 45°29' W 085°21'4 7.1
2018-Jul-21 21:30N 45°25' W 085°19'4 7.2
2018-Jul-21 20:59N 45°22' W 085°17'  
2018-Jul-19 04:14N 45°19' W 085°16'1 5.2
2018-Jul-19 04:01N 45°20' W 085°17'4 7.4
2018-Jul-19 03:31N 45°24' W 085°19'5 7.5
2018-Jul-19 02:54N 45°28' W 085°21'3 7.4
2018-Jul-19 02:30N 45°31' W 085°23'4 7.5
2018-Jul-19 02:00N 45°34' W 085°24'4 7.6
2018-Jul-19 01:30N 45°38' W 085°26'8 6.8
2018-Jul-19 00:22N 45°45' W 085°31'0 0.2
2018-Jul-19 00:01N 45°45' W 085°31'0 0.0
2018-Jul-18 23:30N 45°45' W 085°31'0 0.0
2018-Jul-18 23:01N 45°45' W 085°31'0 0.0
2018-Jul-18 22:30N 45°45' W 085°31'0 0.0
2018-Jul-18 22:01N 45°45' W 085°31'0 0.0
2018-Jul-18 21:30N 45°45' W 085°31'0 0.0
2018-Jul-18 20:59N 45°45' W 085°31'0 0.0
2018-Jul-18 20:30N 45°45' W 085°31'0 0.0
2018-Jul-18 20:00N 45°45' W 085°31'0 0.0
2018-Jul-18 19:29N 45°45' W 085°31'0 0.0
2018-Jul-18 19:00N 45°45' W 085°31'0 0.0
2018-Jul-18 18:30N 45°45' W 085°31'0 0.0
2018-Jul-18 18:01N 45°45' W 085°31'0 0.0
2018-Jul-18 17:30N 45°45' W 085°31'0 0.0
2018-Jul-18 17:00N 45°45' W 085°31'0 0.0
2018-Jul-18 16:31N 45°45' W 085°31'0 0.0
2018-Jul-18 16:00N 45°45' W 085°31'0 0.0
2018-Jul-18 15:30N 45°45' W 085°31'0 0.0
2018-Jul-18 15:00N 45°45' W 085°31'0 0.0
2018-Jul-18 14:30N 45°45' W 085°31'0 0.0
2018-Jul-18 13:31N 45°45' W 085°31'0 0.0
2018-Jul-18 13:00N 45°45' W 085°31'0 0.0
2018-Jul-18 12:30N 45°45' W 085°31'0 0.0
2018-Jul-18 12:01N 45°45' W 085°31'0 0.0
2018-Jul-18 11:31N 45°45' W 085°31'0 0.0
2018-Jul-18 10:30N 45°45' W 085°31'0 0.0
2018-Jul-18 10:00N 45°45' W 085°31'0 0.0
2018-Jul-18 09:30N 45°45' W 085°31'0 0.0
2018-Jul-18 09:00N 45°45' W 085°31'0 0.0
2018-Jul-18 08:31N 45°45' W 085°31'0 0.0
2018-Jul-18 08:01N 45°45' W 085°31'0 0.0
2018-Jul-18 07:31N 45°45' W 085°31'0 0.0
2018-Jul-18 07:01N 45°45' W 085°31'0 0.0
2018-Jul-18 06:30N 45°45' W 085°31'0 0.0
2018-Jul-18 06:00N 45°45' W 085°31'0 0.0
2018-Jul-18 05:31N 45°45' W 085°31'0 0.0
2018-Jul-18 05:00N 45°45' W 085°31'0 0.0
2018-Jul-18 04:31N 45°45' W 085°31'0 0.0
2018-Jul-18 04:00N 45°45' W 085°31'0 0.0
2018-Jul-18 03:30N 45°45' W 085°31'0 0.0
2018-Jul-18 03:00N 45°45' W 085°31'0 0.0
2018-Jul-18 02:30N 45°45' W 085°31'0 0.0
2018-Jul-18 02:00N 45°45' W 085°31'0 0.0
2018-Jul-18 01:30N 45°45' W 085°31'0 0.0
2018-Jul-18 01:00N 45°45' W 085°31'0 0.0
2018-Jul-18 00:30N 45°45' W 085°31'0 0.0
2018-Jul-18 00:00N 45°45' W 085°31'0 0.0
2018-Jul-17 23:30N 45°45' W 085°31'0 0.0
2018-Jul-17 23:00N 45°45' W 085°31'0 0.0
2018-Jul-17 22:30N 45°45' W 085°31'0 0.0
2018-Jul-17 22:00N 45°45' W 085°31'0 0.0
2018-Jul-17 21:30N 45°45' W 085°31'0 0.0
2018-Jul-17 21:00N 45°45' W 085°31'0 0.0
2018-Jul-17 20:31N 45°45' W 085°31'0 0.0
2018-Jul-17 20:00N 45°45' W 085°31'0 0.0
2018-Jul-17 19:29N 45°45' W 085°31'0 0.0
2018-Jul-17 19:00N 45°45' W 085°31'0 0.0
2018-Jul-17 18:30N 45°45' W 085°31'0 0.0
2018-Jul-17 18:01N 45°45' W 085°31'0 0.0
2018-Jul-17 17:31N 45°45' W 085°31'0 0.0
2018-Jul-17 17:00N 45°45' W 085°31'0 0.0
2018-Jul-17 16:30N 45°45' W 085°31'0 0.0
2018-Jul-17 16:01N 45°45' W 085°31'0 0.0
2018-Jul-17 15:30N 45°45' W 085°31'0 0.0
2018-Jul-17 15:01N 45°45' W 085°31'0 0.0
2018-Jul-17 14:30N 45°45' W 085°31'0 0.0
2018-Jul-17 14:01N 45°45' W 085°31'0 0.0
2018-Jul-17 13:30N 45°45' W 085°31'0 0.0
2018-Jul-17 12:59N 45°45' W 085°31'0 0.0
2018-Jul-17 12:30N 45°45' W 085°31'0 0.0
2018-Jul-17 12:00N 45°45' W 085°31'0 0.0
2018-Jul-17 11:30N 45°45' W 085°31'0 0.0
2018-Jul-17 11:00N 45°45' W 085°31'0 0.0
2018-Jul-17 10:30N 45°45' W 085°31'0 0.0
2018-Jul-17 09:57N 45°45' W 085°31'0 0.0
2018-Jul-17 09:30N 45°45' W 085°31'0 0.0
2018-Jul-17 09:00N 45°45' W 085°31'0 0.0
2018-Jul-17 08:30N 45°45' W 085°31'0 0.0
2018-Jul-17 08:00N 45°45' W 085°31'0 0.0
2018-Jul-17 07:30N 45°45' W 085°31'0 0.0
2018-Jul-17 07:00N 45°45' W 085°31'0 0.0
2018-Jul-17 06:30N 45°45' W 085°31'0 0.0
2018-Jul-17 06:01N 45°45' W 085°31'0 0.0
2018-Jul-17 05:28N 45°45' W 085°31'0 0.0
2018-Jul-17 05:01N 45°45' W 085°31'0 0.0
2018-Jul-17 04:31N 45°45' W 085°31'0 0.0
2018-Jul-17 04:00N 45°45' W 085°31'0 0.0
2018-Jul-17 03:30N 45°45' W 085°31'0 0.0
2018-Jul-17 03:01N 45°45' W 085°31'0 0.0
2018-Jul-17 02:29N 45°45' W 085°31'0 0.0
2018-Jul-17 02:00N 45°45' W 085°31'0 0.0
2018-Jul-17 01:30N 45°45' W 085°31'0 0.0
2018-Jul-17 01:01N 45°45' W 085°31'0 0.0
2018-Jul-17 00:28N 45°45' W 085°31'0 0.0
2018-Jul-16 23:30N 45°45' W 085°31'0 0.0
2018-Jul-16 22:59N 45°45' W 085°31'0 0.0
2018-Jul-16 22:30N 45°45' W 085°31'0 0.0
2018-Jul-16 21:59N 45°45' W 085°31'0 0.0
2018-Jul-16 21:31N 45°45' W 085°31'0 0.0
2018-Jul-16 21:00N 45°45' W 085°31'0 0.0
2018-Jul-16 20:30N 45°45' W 085°31'0 0.0
2018-Jul-16 19:57N 45°45' W 085°31'0 0.0
2018-Jul-16 19:30N 45°45' W 085°31'0 0.0
2018-Jul-16 19:00N 45°45' W 085°31'0 0.0
2018-Jul-16 18:30N 45°45' W 085°31'0 0.0
2018-Jul-16 18:00N 45°45' W 085°31'0 0.0
2018-Jul-16 17:28N 45°45' W 085°31'0 0.0
2018-Jul-16 17:00N 45°45' W 085°31'0 0.0
2018-Jul-16 16:30N 45°45' W 085°31'0 0.0
2018-Jul-16 16:00N 45°45' W 085°31'0 0.0
2018-Jul-16 15:30N 45°45' W 085°31'0 0.0
2018-Jul-16 15:00N 45°45' W 085°31'0 0.0
2018-Jul-16 14:30N 45°45' W 085°31'0 0.0
2018-Jul-16 14:00N 45°45' W 085°31'0 0.0
2018-Jul-16 13:30N 45°45' W 085°31'0 0.0
2018-Jul-16 13:00N 45°45' W 085°31'0 0.0
2018-Jul-16 12:30N 45°45' W 085°31'0 0.0
2018-Jul-16 12:00N 45°45' W 085°31'0 0.0
2018-Jul-16 11:30N 45°45' W 085°31'0 0.0
2018-Jul-16 10:59N 45°45' W 085°31'0 0.0
2018-Jul-16 10:31N 45°45' W 085°31'0 0.0
2018-Jul-16 10:01N 45°45' W 085°31'0 0.0
2018-Jul-16 09:30N 45°45' W 085°31'0 0.0
2018-Jul-16 09:00N 45°45' W 085°31'0 0.0
2018-Jul-16 08:30N 45°45' W 085°31'0 0.0
2018-Jul-16 08:00N 45°45' W 085°31'0 0.0
2018-Jul-16 07:30N 45°45' W 085°31'0 0.0
2018-Jul-16 07:00N 45°45' W 085°31'0 0.0
2018-Jul-16 06:30N 45°45' W 085°31'0 0.0
2018-Jul-16 05:59N 45°45' W 085°31'0 0.0
2018-Jul-16 05:30N 45°45' W 085°31'0 0.0
2018-Jul-16 05:00N 45°45' W 085°31'0 0.0
2018-Jul-16 04:29N 45°45' W 085°31'0 0.0
2018-Jul-16 03:50N 45°45' W 085°31'0 0.0
2018-Jul-15 23:19N 45°45' W 085°31'0 0.0
2018-Jul-15 22:59N 45°45' W 085°31'0 0.0
2018-Jul-15 22:05N 45°45' W 085°31'0 0.0
2018-Jul-15 21:52N 45°45' W 085°31'0 0.0
2018-Jul-15 21:29N 45°45' W 085°31'0 0.0
2018-Jul-15 20:58N 45°45' W 085°31'0 0.0
2018-Jul-15 20:30N 45°45' W 085°31'0 0.0
2018-Jul-15 20:00N 45°45' W 085°31'0 0.0
2018-Jul-15 19:30N 45°45' W 085°31'0 0.0
2018-Jul-15 19:00N 45°45' W 085°31'0 0.0
2018-Jul-15 18:30N 45°45' W 085°31'0 0.0
2018-Jul-15 18:00N 45°45' W 085°31'0 0.0
2018-Jul-15 17:30N 45°45' W 085°31'0 0.0
2018-Jul-15 17:00N 45°45' W 085°31'0 0.0
2018-Jul-15 16:30N 45°45' W 085°31'0 0.0
2018-Jul-15 16:00N 45°45' W 085°31'0 0.0
2018-Jul-15 15:30N 45°45' W 085°31'0 0.0
2018-Jul-15 15:00N 45°45' W 085°31'0 0.0
2018-Jul-15 14:30N 45°45' W 085°31'0 0.0
2018-Jul-15 14:00N 45°45' W 085°31'0 0.0
2018-Jul-15 13:30N 45°45' W 085°31'0 0.0
2018-Jul-15 12:58N 45°45' W 085°31'0 0.0
2018-Jul-15 12:27N 45°45' W 085°31'0 0.0
2018-Jul-15 11:58N 45°45' W 085°31'0 0.0
2018-Jul-15 11:29N 45°45' W 085°31'0 0.0
2018-Jul-15 11:00N 45°45' W 085°31'0 0.0
2018-Jul-15 10:24N 45°45' W 085°31'0 0.0
2018-Jul-15 10:00N 45°45' W 085°31'0 0.0
2018-Jul-15 09:27N 45°45' W 085°31'0 0.0
2018-Jul-15 09:00N 45°45' W 085°31'0 0.0
2018-Jul-15 08:30N 45°45' W 085°31'0 0.0
2018-Jul-15 08:00N 45°45' W 085°31'0 0.0
2018-Jul-15 07:30N 45°45' W 085°31'0 0.0
2018-Jul-15 07:00N 45°45' W 085°31'0 0.0
2018-Jul-15 06:30N 45°45' W 085°31'0 0.0
2018-Jul-15 06:00N 45°45' W 085°31'0 0.0
2018-Jul-15 05:30N 45°45' W 085°31'0 0.0
2018-Jul-15 05:00N 45°45' W 085°31'0 0.0
2018-Jul-15 04:30N 45°45' W 085°31'0 0.0
2018-Jul-15 04:00N 45°45' W 085°31'0 0.0
2018-Jul-15 03:29N 45°45' W 085°31'0 0.0
2018-Jul-15 03:00N 45°45' W 085°31'0 0.0
2018-Jul-15 02:31N 45°45' W 085°31'0 0.0
2018-Jul-15 01:59N 45°45' W 085°31'0 0.0
2018-Jul-15 01:25N 45°45' W 085°31'0 0.0
2018-Jul-15 00:48N 45°45' W 085°31'0 0.0
2018-Jul-15 00:30N 45°45' W 085°31'0 0.0
2018-Jul-14 22:56N 45°45' W 085°31'0 0.0
2018-Jul-14 22:30N 45°45' W 085°31'0 0.0
2018-Jul-14 21:59N 45°45' W 085°31'0 0.0
2018-Jul-14 21:30N 45°45' W 085°31'0 0.0
2018-Jul-14 20:55N 45°45' W 085°31'0 0.0
2018-Jul-14 20:30N 45°45' W 085°31'0 0.0
2018-Jul-14 19:59N 45°45' W 085°31'0 0.0
2018-Jul-14 19:30N 45°45' W 085°31'0 0.0
2018-Jul-14 19:00N 45°45' W 085°31'0 0.0
2018-Jul-14 18:30N 45°45' W 085°31'0 0.0
2018-Jul-14 18:00N 45°45' W 085°31'0 0.0
2018-Jul-14 17:30N 45°45' W 085°31'0 0.0
2018-Jul-14 17:00N 45°45' W 085°31'0 0.0
2018-Jul-14 16:30N 45°45' W 085°31'0 0.0
2018-Jul-14 16:00N 45°45' W 085°31'0 0.1
2018-Jul-14 15:30N 45°45' W 085°31'2 5.0
2018-Jul-14 15:00N 45°43' W 085°28'4 8.1
2018-Jul-14 14:30N 45°40' W 085°25'8 8.2
2018-Jul-14 13:30N 45°32' W 085°22'4 8.2
2018-Jul-14 13:00N 45°28' W 085°20'4 8.1
2018-Jul-14 12:30N 45°24' W 085°18'4 8.2
2018-Jul-14 12:00N 45°20' W 085°16'2 3.6
2018-Jul-14 11:30N 45°19' W 085°15'  

Dump ship's entire track history